sensor_id;sensor_type;location;lat;lon;timestamp;temperature;humidity
7844;DHT22;3967;48.702;9.326;2024-01-07T00:00:17;6.00;99.90
7844;DHT22;3967;48.702;9.326;2024-01-07T00:02:44;6.10;99.90
7844;DHT22;3967;48.702;9.326;2024-01-07T00:05:11;6.00;99.90
7844;DHT22;3967;48.702;9.326;2024-01-07T00:07:38;6.10;99.90
7844;DHT22;3967;48.702;9.326;2024-01-07T00:10:05;6.20;99.90
7844;DHT22;3967;48.702;9.326;2024-01-07T00:12:32;6.10;99.90
7844;DHT22;3967;48.702;9.326;2024-01-07T00:14:59;6.10;99.90
7844;DHT22;3967;48.702;9.326;2024-01-07T00:17:26;6.10;99.90
7844;DHT22;3967;48.702;9.326;2024-01-07T00:19:52;6.20;99.90
7844;DHT22;3967;48.702;9.326;2024-01-07T00:22:19;6.30;99.90
7844;DHT22;3967;48.702;9.326;2024-01-07T00:24:46;6.10;99.90
7844;DHT22;3967;48.702;9.326;2024-01-07T00:27:13;6.20;99.90
7844;DHT22;3967;48.702;9.326;2024-01-07T00:29:39;6.30;99.90
7844;DHT22;3967;48.702;9.326;2024-01-07T00:32:06;6.30;99.90
7844;DHT22;3967;48.702;9.326;2024-01-07T00:34:33;6.30;99.90
7844;DHT22;3967;48.702;9.326;2024-01-07T00:37:00;6.30;99.90
7844;DHT22;3967;48.702;9.326;2024-01-07T00:39:27;6.30;99.90
7844;DHT22;3967;48.702;9.326;2024-01-07T00:41:54;6.30;99.90
7844;DHT22;3967;48.702;9.326;2024-01-07T00:44:20;6.30;99.90
7844;DHT22;3967;48.702;9.326;2024-01-07T00:46:47;6.30;99.90
7844;DHT22;3967;48.702;9.326;2024-01-07T00:49:15;6.20;99.90
7844;DHT22;3967;48.702;9.326;2024-01-07T00:51:42;6.20;99.90
7844;DHT22;3967;48.702;9.326;2024-01-07T00:54:09;6.30;99.90
7844;DHT22;3967;48.702;9.326;2024-01-07T00:56:36;6.20;99.90
7844;DHT22;3967;48.702;9.326;2024-01-07T00:59:02;6.20;99.90
7844;DHT22;3967;48.702;9.326;2024-01-07T01:01:29;6.30;99.90
7844;DHT22;3967;48.702;9.326;2024-01-07T01:03:56;6.10;99.90
7844;DHT22;3967;48.702;9.326;2024-01-07T01:06:24;6.00;99.90
7844;DHT22;3967;48.702;9.326;2024-01-07T01:08:51;5.80;99.90
7844;DHT22;3967;48.702;9.326;2024-01-07T01:11:18;5.90;99.90
7844;DHT22;3967;48.702;9.326;2024-01-07T01:13:45;5.90;99.90
7844;DHT22;3967;48.702;9.326;2024-01-07T01:16:12;6.00;99.90
7844;DHT22;3967;48.702;9.326;2024-01-07T01:18:39;6.00;99.90
7844;DHT22;3967;48.702;9.326;2024-01-07T01:21:06;6.00;99.90
7844;DHT22;3967;48.702;9.326;2024-01-07T01:23:34;6.00;99.90
7844;DHT22;3967;48.702;9.326;2024-01-07T01:26:01;6.10;99.90
7844;DHT22;3967;48.702;9.326;2024-01-07T01:28:27;6.10;99.90
7844;DHT22;3967;48.702;9.326;2024-01-07T01:30:54;6.00;99.90
7844;DHT22;3967;48.702;9.326;2024-01-07T01:33:21;6.10;99.90
7844;DHT22;3967;48.702;9.326;2024-01-07T01:35:49;6.30;99.90
7844;DHT22;3967;48.702;9.326;2024-01-07T01:38:16;6.10;99.90
7844;DHT22;3967;48.702;9.326;2024-01-07T01:40:43;5.90;99.90
7844;DHT22;3967;48.702;9.326;2024-01-07T01:43:09;5.90;99.90
7844;DHT22;3967;48.702;9.326;2024-01-07T01:45:36;6.00;99.90
7844;DHT22;3967;48.702;9.326;2024-01-07T01:48:03;5.90;99.90
7844;DHT22;3967;48.702;9.326;2024-01-07T01:50:30;6.10;99.90
7844;DHT22;3967;48.702;9.326;2024-01-07T01:52:57;6.10;99.90
7844;DHT22;3967;48.702;9.326;2024-01-07T01:55:24;6.20;99.90
7844;DHT22;3967;48.702;9.326;2024-01-07T01:57:52;6.00;99.90
7844;DHT22;3967;48.702;9.326;2024-01-07T02:00:20;5.90;99.90
7844;DHT22;3967;48.702;9.326;2024-01-07T02:02:46;6.00;99.90
7844;DHT22;3967;48.702;9.326;2024-01-07T02:05:13;6.00;99.90
7844;DHT22;3967;48.702;9.326;2024-01-07T02:07:41;6.00;99.90
7844;DHT22;3967;48.702;9.326;2024-01-07T02:10:08;6.00;99.90
7844;DHT22;3967;48.702;9.326;2024-01-07T02:12:35;6.00;99.90
7844;DHT22;3967;48.702;9.326;2024-01-07T02:15:02;5.90;99.90
7844;DHT22;3967;48.702;9.326;2024-01-07T02:17:28;5.80;99.90
7844;DHT22;3967;48.702;9.326;2024-01-07T02:19:55;5.90;99.90
7844;DHT22;3967;48.702;9.326;2024-01-07T02:22:22;6.00;99.90
7844;DHT22;3967;48.702;9.326;2024-01-07T02:24:49;5.90;99.90
7844;DHT22;3967;48.702;9.326;2024-01-07T02:27:16;5.90;99.90
7844;DHT22;3967;48.702;9.326;2024-01-07T02:29:43;6.00;99.90
7844;DHT22;3967;48.702;9.326;2024-01-07T02:32:09;6.00;99.90
7844;DHT22;3967;48.702;9.326;2024-01-07T02:34:36;6.00;99.90
7844;DHT22;3967;48.702;9.326;2024-01-07T02:37:03;6.00;99.90
7844;DHT22;3967;48.702;9.326;2024-01-07T02:39:30;6.00;99.90
7844;DHT22;3967;48.702;9.326;2024-01-07T02:41:57;6.00;99.90
7844;DHT22;3967;48.702;9.326;2024-01-07T02:44:23;5.90;99.90
7844;DHT22;3967;48.702;9.326;2024-01-07T02:46:50;6.00;99.90
7844;DHT22;3967;48.702;9.326;2024-01-07T02:49:17;6.10;99.90
7844;DHT22;3967;48.702;9.326;2024-01-07T02:51:44;6.10;99.90
7844;DHT22;3967;48.702;9.326;2024-01-07T02:54:15;6.10;99.90
7844;DHT22;3967;48.702;9.326;2024-01-07T02:56:42;5.80;99.90
7844;DHT22;3967;48.702;9.326;2024-01-07T02:59:09;5.80;99.90
7844;DHT22;3967;48.702;9.326;2024-01-07T03:01:36;5.90;99.90
7844;DHT22;3967;48.702;9.326;2024-01-07T03:04:09;5.80;99.90
7844;DHT22;3967;48.702;9.326;2024-01-07T03:06:36;5.80;99.90
7844;DHT22;3967;48.702;9.326;2024-01-07T03:09:03;5.90;99.90
7844;DHT22;3967;48.702;9.326;2024-01-07T03:11:30;5.80;99.90
7844;DHT22;3967;48.702;9.326;2024-01-07T03:13:57;5.70;99.90
7844;DHT22;3967;48.702;9.326;2024-01-07T03:16:25;5.70;99.90
7844;DHT22;3967;48.702;9.326;2024-01-07T03:18:52;5.80;99.90
7844;DHT22;3967;48.702;9.326;2024-01-07T03:21:20;5.80;99.90
7844;DHT22;3967;48.702;9.326;2024-01-07T03:23:48;5.80;99.90
7844;DHT22;3967;48.702;9.326;2024-01-07T03:26:17;5.70;99.90
7844;DHT22;3967;48.702;9.326;2024-01-07T03:28:44;5.80;99.90
7844;DHT22;3967;48.702;9.326;2024-01-07T03:31:15;5.80;99.90
7844;DHT22;3967;48.702;9.326;2024-01-07T03:33:43;5.70;99.90
7844;DHT22;3967;48.702;9.326;2024-01-07T03:36:12;5.70;99.90
7844;DHT22;3967;48.702;9.326;2024-01-07T03:38:40;5.80;99.90
7844;DHT22;3967;48.702;9.326;2024-01-07T03:41:07;5.80;99.90
7844;DHT22;3967;48.702;9.326;2024-01-07T03:43:34;5.60;99.90
7844;DHT22;3967;48.702;9.326;2024-01-07T03:46:01;5.60;99.90
7844;DHT22;3967;48.702;9.326;2024-01-07T03:48:28;5.70;99.90
7844;DHT22;3967;48.702;9.326;2024-01-07T03:50:55;5.60;99.90
7844;DHT22;3967;48.702;9.326;2024-01-07T03:53:21;5.70;99.90
7844;DHT22;3967;48.702;9.326;2024-01-07T03:55:48;5.60;99.90
7844;DHT22;3967;48.702;9.326;2024-01-07T03:58:15;5.60;99.90
7844;DHT22;3967;48.702;9.326;2024-01-07T04:00:41;5.40;99.90
7844;DHT22;3967;48.702;9.326;2024-01-07T04:03:08;5.30;99.90
7844;DHT22;3967;48.702;9.326;2024-01-07T04:05:35;5.50;99.90
7844;DHT22;3967;48.702;9.326;2024-01-07T04:08:03;5.50;99.90
7844;DHT22;3967;48.702;9.326;2024-01-07T04:10:30;5.50;99.90
7844;DHT22;3967;48.702;9.326;2024-01-07T04:12:57;5.50;99.90
7844;DHT22;3967;48.702;9.326;2024-01-07T04:15:24;5.50;99.90
7844;DHT22;3967;48.702;9.326;2024-01-07T04:17:50;5.40;99.90
7844;DHT22;3967;48.702;9.326;2024-01-07T04:20:17;5.40;99.90
7844;DHT22;3967;48.702;9.326;2024-01-07T04:22:44;5.50;99.90
7844;DHT22;3967;48.702;9.326;2024-01-07T04:25:11;5.50;99.90
7844;DHT22;3967;48.702;9.326;2024-01-07T04:27:38;5.40;99.90
7844;DHT22;3967;48.702;9.326;2024-01-07T04:30:06;5.40;99.90
7844;DHT22;3967;48.702;9.326;2024-01-07T04:32:33;5.40;99.90
7844;DHT22;3967;48.702;9.326;2024-01-07T04:34:59;5.50;99.90
7844;DHT22;3967;48.702;9.326;2024-01-07T04:37:26;5.50;99.90
7844;DHT22;3967;48.702;9.326;2024-01-07T04:39:53;5.40;99.90
7844;DHT22;3967;48.702;9.326;2024-01-07T04:42:20;5.40;99.90
7844;DHT22;3967;48.702;9.326;2024-01-07T04:44:47;5.30;99.90
7844;DHT22;3967;48.702;9.326;2024-01-07T04:47:43;5.10;99.90
7844;DHT22;3967;48.702;9.326;2024-01-07T04:50:09;5.10;99.90
7844;DHT22;3967;48.702;9.326;2024-01-07T04:52:36;5.10;99.90
7844;DHT22;3967;48.702;9.326;2024-01-07T04:55:03;5.10;99.90
7844;DHT22;3967;48.702;9.326;2024-01-07T04:57:30;5.20;99.90
7844;DHT22;3967;48.702;9.326;2024-01-07T04:59:57;5.20;99.90
7844;DHT22;3967;48.702;9.326;2024-01-07T05:02:24;5.20;99.90
7844;DHT22;3967;48.702;9.326;2024-01-07T05:04:50;5.30;99.90
7844;DHT22;3967;48.702;9.326;2024-01-07T05:07:17;5.30;99.90
7844;DHT22;3967;48.702;9.326;2024-01-07T05:09:44;5.20;99.90
7844;DHT22;3967;48.702;9.326;2024-01-07T05:12:11;5.20;99.90
7844;DHT22;3967;48.702;9.326;2024-01-07T05:14:38;5.20;99.90
7844;DHT22;3967;48.702;9.326;2024-01-07T05:17:04;5.20;99.90
7844;DHT22;3967;48.702;9.326;2024-01-07T05:19:31;5.10;99.90
7844;DHT22;3967;48.702;9.326;2024-01-07T05:21:59;5.10;99.90
7844;DHT22;3967;48.702;9.326;2024-01-07T05:24:26;5.10;99.90
7844;DHT22;3967;48.702;9.326;2024-01-07T05:26:53;5.20;99.90
7844;DHT22;3967;48.702;9.326;2024-01-07T05:29:19;5.20;99.90
7844;DHT22;3967;48.702;9.326;2024-01-07T05:31:46;5.10;99.90
7844;DHT22;3967;48.702;9.326;2024-01-07T05:34:13;5.10;99.90
7844;DHT22;3967;48.702;9.326;2024-01-07T05:36:40;5.10;99.90
7844;DHT22;3967;48.702;9.326;2024-01-07T05:39:07;5.00;99.90
7844;DHT22;3967;48.702;9.326;2024-01-07T05:41:37;5.00;99.90
7844;DHT22;3967;48.702;9.326;2024-01-07T05:44:03;5.00;99.90
7844;DHT22;3967;48.702;9.326;2024-01-07T05:46:30;5.00;99.90
7844;DHT22;3967;48.702;9.326;2024-01-07T05:48:57;5.10;99.90
7844;DHT22;3967;48.702;9.326;2024-01-07T05:51:25;5.30;99.90
7844;DHT22;3967;48.702;9.326;2024-01-07T05:53:51;5.30;99.90
7844;DHT22;3967;48.702;9.326;2024-01-07T05:56:18;5.30;99.90
7844;DHT22;3967;48.702;9.326;2024-01-07T05:58:45;5.30;99.90
7844;DHT22;3967;48.702;9.326;2024-01-07T06:01:19;5.20;99.90
7844;DHT22;3967;48.702;9.326;2024-01-07T06:03:46;5.10;99.90
7844;DHT22;3967;48.702;9.326;2024-01-07T06:06:14;5.10;99.90
7844;DHT22;3967;48.702;9.326;2024-01-07T06:08:42;5.20;99.90
7844;DHT22;3967;48.702;9.326;2024-01-07T06:11:09;5.10;99.90
7844;DHT22;3967;48.702;9.326;2024-01-07T06:13:37;5.10;99.90
7844;DHT22;3967;48.702;9.326;2024-01-07T06:16:04;5.20;99.90
7844;DHT22;3967;48.702;9.326;2024-01-07T06:18:31;5.20;99.90
7844;DHT22;3967;48.702;9.326;2024-01-07T06:21:00;5.20;99.90
7844;DHT22;3967;48.702;9.326;2024-01-07T06:23:26;5.20;99.90
7844;DHT22;3967;48.702;9.326;2024-01-07T06:25:53;5.10;99.90
7844;DHT22;3967;48.702;9.326;2024-01-07T06:28:20;5.00;99.90
7844;DHT22;3967;48.702;9.326;2024-01-07T06:30:47;5.10;99.90
7844;DHT22;3967;48.702;9.326;2024-01-07T06:33:14;5.30;99.90
7844;DHT22;3967;48.702;9.326;2024-01-07T06:35:41;5.30;99.90
7844;DHT22;3967;48.702;9.326;2024-01-07T06:38:08;5.30;99.90
7844;DHT22;3967;48.702;9.326;2024-01-07T06:40:35;5.30;99.90
7844;DHT22;3967;48.702;9.326;2024-01-07T06:43:02;5.40;99.90
7844;DHT22;3967;48.702;9.326;2024-01-07T06:45:28;5.40;99.90
7844;DHT22;3967;48.702;9.326;2024-01-07T06:47:55;5.30;99.90
7844;DHT22;3967;48.702;9.326;2024-01-07T06:50:22;5.30;99.90
7844;DHT22;3967;48.702;9.326;2024-01-07T06:52:49;5.30;99.90
7844;DHT22;3967;48.702;9.326;2024-01-07T06:55:16;5.20;99.90
7844;DHT22;3967;48.702;9.326;2024-01-07T06:57:42;5.10;99.90
7844;DHT22;3967;48.702;9.326;2024-01-07T07:00:10;5.20;99.90
7844;DHT22;3967;48.702;9.326;2024-01-07T07:02:36;5.20;99.90
7844;DHT22;3967;48.702;9.326;2024-01-07T07:05:03;5.20;99.90
7844;DHT22;3967;48.702;9.326;2024-01-07T07:07:30;5.10;99.90
7844;DHT22;3967;48.702;9.326;2024-01-07T07:09:57;5.10;99.90
7844;DHT22;3967;48.702;9.326;2024-01-07T07:12:23;5.00;99.90
7844;DHT22;3967;48.702;9.326;2024-01-07T07:14:50;5.00;99.90
7844;DHT22;3967;48.702;9.326;2024-01-07T07:17:17;5.00;99.90
7844;DHT22;3967;48.702;9.326;2024-01-07T07:19:44;5.00;99.90
7844;DHT22;3967;48.702;9.326;2024-01-07T07:22:11;5.00;99.90
7844;DHT22;3967;48.702;9.326;2024-01-07T07:24:42;5.00;99.90
7844;DHT22;3967;48.702;9.326;2024-01-07T07:27:09;4.90;99.90
7844;DHT22;3967;48.702;9.326;2024-01-07T07:29:36;5.00;99.90
7844;DHT22;3967;48.702;9.326;2024-01-07T07:32:03;5.00;99.90
7844;DHT22;3967;48.702;9.326;2024-01-07T07:34:29;5.00;99.90
7844;DHT22;3967;48.702;9.326;2024-01-07T07:36:56;5.00;99.90
7844;DHT22;3967;48.702;9.326;2024-01-07T07:39:23;4.90;99.90
7844;DHT22;3967;48.702;9.326;2024-01-07T07:41:50;5.00;99.90
7844;DHT22;3967;48.702;9.326;2024-01-07T07:44:17;5.00;99.90
7844;DHT22;3967;48.702;9.326;2024-01-07T07:46:44;4.90;99.90
7844;DHT22;3967;48.702;9.326;2024-01-07T07:49:11;4.80;99.90
7844;DHT22;3967;48.702;9.326;2024-01-07T07:51:38;4.90;99.90
7844;DHT22;3967;48.702;9.326;2024-01-07T07:54:05;5.00;99.90
7844;DHT22;3967;48.702;9.326;2024-01-07T07:56:32;4.70;99.90
7844;DHT22;3967;48.702;9.326;2024-01-07T07:58:59;4.70;99.90
7844;DHT22;3967;48.702;9.326;2024-01-07T08:01:25;4.70;99.90
7844;DHT22;3967;48.702;9.326;2024-01-07T08:03:52;4.70;99.90
7844;DHT22;3967;48.702;9.326;2024-01-07T08:06:19;4.60;99.90
7844;DHT22;3967;48.702;9.326;2024-01-07T08:08:46;4.30;99.90
7844;DHT22;3967;48.702;9.326;2024-01-07T08:11:14;4.30;99.90
7844;DHT22;3967;48.702;9.326;2024-01-07T08:13:42;4.30;99.90
7844;DHT22;3967;48.702;9.326;2024-01-07T08:16:08;4.30;99.90
7844;DHT22;3967;48.702;9.326;2024-01-07T08:18:37;4.20;99.90
7844;DHT22;3967;48.702;9.326;2024-01-07T08:21:04;4.20;99.90
7844;DHT22;3967;48.702;9.326;2024-01-07T08:25:58;4.20;99.90
7844;DHT22;3967;48.702;9.326;2024-01-07T08:28:25;4.10;99.90
7844;DHT22;3967;48.702;9.326;2024-01-07T08:30:52;4.10;99.90
7844;DHT22;3967;48.702;9.326;2024-01-07T08:33:20;4.20;99.90
7844;DHT22;3967;48.702;9.326;2024-01-07T08:35:47;4.20;99.90
7844;DHT22;3967;48.702;9.326;2024-01-07T08:38:16;4.20;99.90
7844;DHT22;3967;48.702;9.326;2024-01-07T08:40:43;4.30;99.90
7844;DHT22;3967;48.702;9.326;2024-01-07T08:43:09;4.40;99.90
7844;DHT22;3967;48.702;9.326;2024-01-07T08:45:37;4.10;99.90
7844;DHT22;3967;48.702;9.326;2024-01-07T08:48:04;4.10;99.90
7844;DHT22;3967;48.702;9.326;2024-01-07T08:50:31;4.00;99.90
7844;DHT22;3967;48.702;9.326;2024-01-07T08:52:58;4.00;99.90
7844;DHT22;3967;48.702;9.326;2024-01-07T08:55:26;4.10;99.90
7844;DHT22;3967;48.702;9.326;2024-01-07T08:57:54;4.20;99.90
7844;DHT22;3967;48.702;9.326;2024-01-07T09:00:21;4.10;99.90
7844;DHT22;3967;48.702;9.326;2024-01-07T09:02:55;4.10;99.90
7844;DHT22;3967;48.702;9.326;2024-01-07T09:05:24;3.90;99.90
7844;DHT22;3967;48.702;9.326;2024-01-07T09:07:51;4.00;99.90
7844;DHT22;3967;48.702;9.326;2024-01-07T09:10:18;3.80;99.90
7844;DHT22;3967;48.702;9.326;2024-01-07T09:12:45;4.00;99.90
7844;DHT22;3967;48.702;9.326;2024-01-07T09:15:12;4.00;99.90
7844;DHT22;3967;48.702;9.326;2024-01-07T09:17:39;4.10;99.90
7844;DHT22;3967;48.702;9.326;2024-01-07T09:20:07;4.30;99.90
7844;DHT22;3967;48.702;9.326;2024-01-07T09:22:35;4.20;99.90
7844;DHT22;3967;48.702;9.326;2024-01-07T09:25:05;4.10;99.90
7844;DHT22;3967;48.702;9.326;2024-01-07T09:27:33;4.10;99.90
7844;DHT22;3967;48.702;9.326;2024-01-07T09:30:00;3.90;99.90
7844;DHT22;3967;48.702;9.326;2024-01-07T09:32:28;3.70;99.90
7844;DHT22;3967;48.702;9.326;2024-01-07T09:34:54;3.70;99.90
7844;DHT22;3967;48.702;9.326;2024-01-07T09:37:22;3.80;99.90
7844;DHT22;3967;48.702;9.326;2024-01-07T09:39:48;3.70;99.90
7844;DHT22;3967;48.702;9.326;2024-01-07T09:42:17;3.60;99.90
7844;DHT22;3967;48.702;9.326;2024-01-07T09:44:44;3.50;99.90
7844;DHT22;3967;48.702;9.326;2024-01-07T09:47:14;3.60;99.90
7844;DHT22;3967;48.702;9.326;2024-01-07T09:49:41;3.50;99.90
7844;DHT22;3967;48.702;9.326;2024-01-07T09:52:10;3.40;99.90
7844;DHT22;3967;48.702;9.326;2024-01-07T09:54:37;3.40;99.90
7844;DHT22;3967;48.702;9.326;2024-01-07T09:57:07;3.40;99.90
7844;DHT22;3967;48.702;9.326;2024-01-07T09:59:35;3.30;99.90
7844;DHT22;3967;48.702;9.326;2024-01-07T10:02:03;3.40;99.90
7844;DHT22;3967;48.702;9.326;2024-01-07T10:04:31;3.40;99.90
7844;DHT22;3967;48.702;9.326;2024-01-07T10:06:58;3.40;99.90
7844;DHT22;3967;48.702;9.326;2024-01-07T10:09:29;3.40;99.90
7844;DHT22;3967;48.702;9.326;2024-01-07T10:11:56;3.40;99.90
7844;DHT22;3967;48.702;9.326;2024-01-07T10:14:23;3.50;99.90
7844;DHT22;3967;48.702;9.326;2024-01-07T10:16:51;3.50;99.90
7844;DHT22;3967;48.702;9.326;2024-01-07T10:19:22;3.60;99.90
7844;DHT22;3967;48.702;9.326;2024-01-07T10:22:08;3.50;99.90
7844;DHT22;3967;48.702;9.326;2024-01-07T10:24:41;3.50;99.90
7844;DHT22;3967;48.702;9.326;2024-01-07T10:27:09;3.60;99.90
7844;DHT22;3967;48.702;9.326;2024-01-07T10:29:36;3.70;99.90
7844;DHT22;3967;48.702;9.326;2024-01-07T10:32:04;3.60;99.90
7844;DHT22;3967;48.702;9.326;2024-01-07T10:34:33;3.60;99.90
7844;DHT22;3967;48.702;9.326;2024-01-07T10:37:03;3.60;99.90
7844;DHT22;3967;48.702;9.326;2024-01-07T10:39:30;3.60;99.90
7844;DHT22;3967;48.702;9.326;2024-01-07T10:41:58;3.60;99.90
7844;DHT22;3967;48.702;9.326;2024-01-07T10:44:30;3.50;99.90
7844;DHT22;3967;48.702;9.326;2024-01-07T10:46:58;3.50;99.90
7844;DHT22;3967;48.702;9.326;2024-01-07T10:49:27;3.50;99.90
7844;DHT22;3967;48.702;9.326;2024-01-07T10:54:32;3.30;99.90
7844;DHT22;3967;48.702;9.326;2024-01-07T10:59:40;3.20;99.90
7844;DHT22;3967;48.702;9.326;2024-01-07T11:02:08;3.30;99.90
7844;DHT22;3967;48.702;9.326;2024-01-07T11:05:00;3.20;99.90
7844;DHT22;3967;48.702;9.326;2024-01-07T11:07:39;3.20;99.90
7844;DHT22;3967;48.702;9.326;2024-01-07T11:12:40;3.00;99.90
7844;DHT22;3967;48.702;9.326;2024-01-07T11:15:07;2.90;99.90
7844;DHT22;3967;48.702;9.326;2024-01-07T11:20:12;3.00;99.90
7844;DHT22;3967;48.702;9.326;2024-01-07T11:22:40;3.10;99.90
7844;DHT22;3967;48.702;9.326;2024-01-07T11:25:28;3.10;99.90
7844;DHT22;3967;48.702;9.326;2024-01-07T11:28:00;3.30;99.90
7844;DHT22;3967;48.702;9.326;2024-01-07T11:30:27;3.40;99.90
7844;DHT22;3967;48.702;9.326;2024-01-07T11:32:58;3.30;99.30
7844;DHT22;3967;48.702;9.326;2024-01-07T11:35:59;3.20;99.30
7844;DHT22;3967;48.702;9.326;2024-01-07T11:38:26;3.30;99.90
7844;DHT22;3967;48.702;9.326;2024-01-07T11:40:54;3.30;99.80
7844;DHT22;3967;48.702;9.326;2024-01-07T11:43:23;3.30;99.80
7844;DHT22;3967;48.702;9.326;2024-01-07T11:45:50;3.20;99.50
7844;DHT22;3967;48.702;9.326;2024-01-07T11:48:18;3.20;99.40
7844;DHT22;3967;48.702;9.326;2024-01-07T11:50:49;3.30;99.40
7844;DHT22;3967;48.702;9.326;2024-01-07T11:53:19;3.40;99.40
7844;DHT22;3967;48.702;9.326;2024-01-07T11:55:46;3.30;98.80
7844;DHT22;3967;48.702;9.326;2024-01-07T11:58:13;3.20;98.60
7844;DHT22;3967;48.702;9.326;2024-01-07T12:00:40;3.40;99.00
7844;DHT22;3967;48.702;9.326;2024-01-07T12:03:07;3.50;98.70
7844;DHT22;3967;48.702;9.326;2024-01-07T12:05:34;3.60;98.80
7844;DHT22;3967;48.702;9.326;2024-01-07T12:08:01;3.50;98.90
7844;DHT22;3967;48.702;9.326;2024-01-07T12:10:28;3.40;99.10
7844;DHT22;3967;48.702;9.326;2024-01-07T12:12:56;3.30;98.80
7844;DHT22;3967;48.702;9.326;2024-01-07T12:15:23;3.10;98.40
7844;DHT22;3967;48.702;9.326;2024-01-07T12:17:59;3.10;98.30
7844;DHT22;3967;48.702;9.326;2024-01-07T12:20:28;3.30;98.70
7844;DHT22;3967;48.702;9.326;2024-01-07T12:22:56;3.10;98.30
7844;DHT22;3967;48.702;9.326;2024-01-07T12:25:24;3.10;98.60
7844;DHT22;3967;48.702;9.326;2024-01-07T12:27:51;3.20;98.60
7844;DHT22;3967;48.702;9.326;2024-01-07T12:30:24;3.00;98.40
7844;DHT22;3967;48.702;9.326;2024-01-07T12:32:55;3.10;98.20
7844;DHT22;3967;48.702;9.326;2024-01-07T12:35:25;3.00;98.30
7844;DHT22;3967;48.702;9.326;2024-01-07T12:37:52;2.90;98.10
7844;DHT22;3967;48.702;9.326;2024-01-07T12:40:19;2.90;97.30
7844;DHT22;3967;48.702;9.326;2024-01-07T12:42:46;2.90;97.70
7844;DHT22;3967;48.702;9.326;2024-01-07T12:45:14;3.00;98.00
7844;DHT22;3967;48.702;9.326;2024-01-07T12:47:42;2.90;98.10
7844;DHT22;3967;48.702;9.326;2024-01-07T12:50:10;3.00;98.20
7844;DHT22;3967;48.702;9.326;2024-01-07T12:52:37;2.80;97.90
7844;DHT22;3967;48.702;9.326;2024-01-07T12:55:05;2.70;97.80
7844;DHT22;3967;48.702;9.326;2024-01-07T12:57:33;2.70;98.50
7844;DHT22;3967;48.702;9.326;2024-01-07T13:00:01;2.70;98.10
7844;DHT22;3967;48.702;9.326;2024-01-07T13:02:28;2.70;98.80
7844;DHT22;3967;48.702;9.326;2024-01-07T13:04:55;2.70;98.50
7844;DHT22;3967;48.702;9.326;2024-01-07T13:07:22;2.70;98.50
7844;DHT22;3967;48.702;9.326;2024-01-07T13:09:58;2.60;98.40
7844;DHT22;3967;48.702;9.326;2024-01-07T13:12:26;2.50;98.00
7844;DHT22;3967;48.702;9.326;2024-01-07T13:15:06;2.70;98.30
7844;DHT22;3967;48.702;9.326;2024-01-07T13:17:33;2.80;98.40
7844;DHT22;3967;48.702;9.326;2024-01-07T13:20:00;2.70;98.20
7844;DHT22;3967;48.702;9.326;2024-01-07T13:22:27;2.70;98.30
7844;DHT22;3967;48.702;9.326;2024-01-07T13:24:54;2.50;98.80
7844;DHT22;3967;48.702;9.326;2024-01-07T13:27:21;2.50;98.60
7844;DHT22;3967;48.702;9.326;2024-01-07T13:29:50;2.40;98.70
7844;DHT22;3967;48.702;9.326;2024-01-07T13:32:17;2.40;98.70
7844;DHT22;3967;48.702;9.326;2024-01-07T13:34:45;2.40;98.70
7844;DHT22;3967;48.702;9.326;2024-01-07T13:37:12;2.50;98.90
7844;DHT22;3967;48.702;9.326;2024-01-07T13:39:39;2.50;99.00
7844;DHT22;3967;48.702;9.326;2024-01-07T13:42:06;2.50;98.90
7844;DHT22;3967;48.702;9.326;2024-01-07T13:44:33;2.40;99.20
7844;DHT22;3967;48.702;9.326;2024-01-07T13:47:01;2.50;99.90
7844;DHT22;3967;48.702;9.326;2024-01-07T13:49:28;2.40;99.50
7844;DHT22;3967;48.702;9.326;2024-01-07T13:51:55;2.40;99.90
7844;DHT22;3967;48.702;9.326;2024-01-07T13:54:22;2.20;99.90
7844;DHT22;3967;48.702;9.326;2024-01-07T13:56:49;2.50;99.90
7844;DHT22;3967;48.702;9.326;2024-01-07T13:59:17;2.50;99.90
7844;DHT22;3967;48.702;9.326;2024-01-07T14:01:44;2.40;99.90
7844;DHT22;3967;48.702;9.326;2024-01-07T14:04:11;2.30;99.90
7844;DHT22;3967;48.702;9.326;2024-01-07T14:06:38;2.30;99.90
7844;DHT22;3967;48.702;9.326;2024-01-07T14:09:05;2.20;99.90
7844;DHT22;3967;48.702;9.326;2024-01-07T14:11:33;2.20;99.90
7844;DHT22;3967;48.702;9.326;2024-01-07T14:13:59;2.30;99.90
7844;DHT22;3967;48.702;9.326;2024-01-07T14:16:28;2.20;99.90
7844;DHT22;3967;48.702;9.326;2024-01-07T14:18:55;2.20;99.90
7844;DHT22;3967;48.702;9.326;2024-01-07T14:21:22;2.30;99.90
7844;DHT22;3967;48.702;9.326;2024-01-07T14:23:48;2.30;99.90
7844;DHT22;3967;48.702;9.326;2024-01-07T14:26:15;2.20;99.90
7844;DHT22;3967;48.702;9.326;2024-01-07T14:28:42;2.20;99.90
7844;DHT22;3967;48.702;9.326;2024-01-07T14:31:09;2.30;99.90
7844;DHT22;3967;48.702;9.326;2024-01-07T14:33:36;2.10;99.90
7844;DHT22;3967;48.702;9.326;2024-01-07T14:36:04;2.10;99.90
7844;DHT22;3967;48.702;9.326;2024-01-07T14:38:31;2.00;99.90
7844;DHT22;3967;48.702;9.326;2024-01-07T14:40:58;2.10;99.90
7844;DHT22;3967;48.702;9.326;2024-01-07T14:43:25;2.00;99.90
7844;DHT22;3967;48.702;9.326;2024-01-07T14:45:52;2.00;99.90
7844;DHT22;3967;48.702;9.326;2024-01-07T14:48:19;1.80;99.90
7844;DHT22;3967;48.702;9.326;2024-01-07T14:50:46;1.90;99.90
7844;DHT22;3967;48.702;9.326;2024-01-07T14:53:14;1.90;99.90
7844;DHT22;3967;48.702;9.326;2024-01-07T14:55:41;1.70;99.90
7844;DHT22;3967;48.702;9.326;2024-01-07T14:58:08;1.70;99.90
7844;DHT22;3967;48.702;9.326;2024-01-07T15:00:35;1.70;99.90
7844;DHT22;3967;48.702;9.326;2024-01-07T15:03:03;1.70;99.90
7844;DHT22;3967;48.702;9.326;2024-01-07T15:05:30;1.70;99.90
7844;DHT22;3967;48.702;9.326;2024-01-07T15:07:57;1.50;99.90
7844;DHT22;3967;48.702;9.326;2024-01-07T15:10:23;1.50;99.90
7844;DHT22;3967;48.702;9.326;2024-01-07T15:12:50;1.50;99.90
7844;DHT22;3967;48.702;9.326;2024-01-07T15:15:28;1.50;99.90
7844;DHT22;3967;48.702;9.326;2024-01-07T15:17:57;1.60;99.90
7844;DHT22;3967;48.702;9.326;2024-01-07T15:20:24;1.60;99.90
7844;DHT22;3967;48.702;9.326;2024-01-07T15:22:51;1.50;99.90
7844;DHT22;3967;48.702;9.326;2024-01-07T15:25:19;1.40;99.90
7844;DHT22;3967;48.702;9.326;2024-01-07T15:27:46;1.40;99.90
7844;DHT22;3967;48.702;9.326;2024-01-07T15:30:13;1.60;99.90
7844;DHT22;3967;48.702;9.326;2024-01-07T15:32:43;1.60;99.90
7844;DHT22;3967;48.702;9.326;2024-01-07T15:35:10;1.60;99.90
7844;DHT22;3967;48.702;9.326;2024-01-07T15:37:40;1.50;99.90
7844;DHT22;3967;48.702;9.326;2024-01-07T15:40:07;1.40;99.90
7844;DHT22;3967;48.702;9.326;2024-01-07T15:42:34;1.40;99.90
7844;DHT22;3967;48.702;9.326;2024-01-07T15:45:01;1.30;99.90
7844;DHT22;3967;48.702;9.326;2024-01-07T15:47:28;1.20;99.90
7844;DHT22;3967;48.702;9.326;2024-01-07T15:49:55;1.40;99.90
7844;DHT22;3967;48.702;9.326;2024-01-07T15:52:22;1.50;99.90
7844;DHT22;3967;48.702;9.326;2024-01-07T15:54:49;1.40;99.90
7844;DHT22;3967;48.702;9.326;2024-01-07T15:57:16;1.40;99.90
7844;DHT22;3967;48.702;9.326;2024-01-07T15:59:43;1.30;99.90
7844;DHT22;3967;48.702;9.326;2024-01-07T16:02:10;1.10;99.90
7844;DHT22;3967;48.702;9.326;2024-01-07T16:04:37;1.20;99.90
7844;DHT22;3967;48.702;9.326;2024-01-07T16:07:04;1.20;99.90
7844;DHT22;3967;48.702;9.326;2024-01-07T16:09:31;1.10;99.90
7844;DHT22;3967;48.702;9.326;2024-01-07T16:12:03;1.20;99.90
7844;DHT22;3967;48.702;9.326;2024-01-07T16:14:30;1.10;99.90
7844;DHT22;3967;48.702;9.326;2024-01-07T16:17:00;1.10;99.90
7844;DHT22;3967;48.702;9.326;2024-01-07T16:19:28;1.20;99.90
7844;DHT22;3967;48.702;9.326;2024-01-07T16:21:58;1.10;99.90
7844;DHT22;3967;48.702;9.326;2024-01-07T16:24:28;1.20;99.90
7844;DHT22;3967;48.702;9.326;2024-01-07T16:27:06;1.10;99.90
7844;DHT22;3967;48.702;9.326;2024-01-07T16:29:37;1.20;99.90
7844;DHT22;3967;48.702;9.326;2024-01-07T16:32:14;1.20;99.90